Aérodrome :
LOGIN :

S'inscrire | Disclaimer

   EN    FR    IT 

 










Légende :    VFR   VFR Marginal   IFR   IFR Intensif   IFR Très Intensif
Visi : 
Plafond : 
>= 8 km
>= 3000ft
5 à 8 km
1000 à 3000 ft
1500m à 5 km
500 à 1000 ft
800 à 1500m
200 à 500 ft
< 800m
< 200 ft
Symboles :   Orages  Brouillard  Fortes neiges  Fortes précipitations  Vent > 20 kt
SIGMETs :   Divers  Orages  Givrage  Turbulence  Onde Orograph.  Cendres Volcan.






- Altitude de l'aérodrome : 83 ft
- Code IATA : LHR


EGLL - London Heathrow

DERNIER METAR :
  • 152020Z AUTO 14003KT 6000 NCD 00/M00 Q1030

METARs EXPIRÉS :
  • 151950Z AUTO 14002KT 7000 NCD M00/M01 Q1030 NOSIG
  • 151920Z AUTO 15002KT 7000 NCD M00/M01 Q1030 NOSIG
  • 151850Z AUTO 20002KT 8000 NCD 00/M01 Q1031 NOSIG
  • 151820Z AUTO VRB03KT 9999 NCD 01/M00 Q1031 NOSIG
  • 151750Z AUTO 21003KT 9999 NCD 01/00 Q1031

TAF TAF EGLL
Valide du 15 à 18h jusqu'au 17 à 00h UTC


151658Z 1518/1624 11003KT 9999 FEW030
PROB40 1518/1524 6000
BECMG 1600/1603 17012KT
BECMG 1603/1606 6000 RA BKN006
TEMPO 1604/1610 16015G25KT 2000 RASN BKN003
PROB30
TEMPO 1605/1609 1000 +RASN
BECMG 1610/1613 23012KT
TEMPO 1610/1614 20015G25KT 3000 RADZ BKN004
BECMG 1613/1616 30010KT 9999 NSW FEW025



MET'MAP, la Météo Aéronautique d'un coup d'oeil ! - Copyright ORBIFLY Décembre 2007 - Disclaimer

ORBIFLY MET'MAP TEAM :

Programmation & Développement : Alexandra Zaïnal
Sur une idée originale de : Baudouin d'Aumeries
Assistance à la programmation : Marc-Olivier Méhu
Soutien technique & logistique : Manuel Goepfert

Contact : metmap@orbifly.com




SOURCES & CREDITS :

   NOAA